Thurgau — HBLF — position and weather

sailwx.info

Track history (hours):
 
Tides and Currents Weather Stations Pressure Air Temp Water Temp Dewpoint Dewpoint Depression Visibility Wind Speed Wind Dir Waves Ship Positions

Thurgau

Last reported at 2017-Jan-31 11:32 UTC. Time now 2017-Mar-25 13:33 UTC.
Position N 01°14' E 104°00'.
Warning: this ship's position is 53 days out of date.

Length 180 m; draft 9.2 m.

Type: Cargo ship. MMSI: 269217000.

Date/timePositionNaut miles runAvg speedWind from/ knotsBaromVisibWave heightAir tempDewpointWater temp
2017-Jan-31 11:32N 01°14' E 104°00'7 7.1
2017-Jan-31 10:33N 01°14' E 103°53'1 1.1
2017-Jan-31 09:30N 01°15' E 103°53'0 0.0
2017-Jan-31 08:30N 01°15' E 103°53'0 0.0
2017-Jan-31 07:27N 01°15' E 103°53'0 0.2
2017-Jan-31 06:24N 01°15' E 103°53'0 0.0
2017-Jan-31 01:12N 01°15' E 103°52'0 0.0
2017-Jan-30 23:30N 01°15' E 103°52'0 0.0
2017-Jan-30 17:33N 01°15' E 103°53'2 2.2
2017-Jan-30 16:33N 01°13' E 103°54'87 8.6
2017-Jan-30 06:21N 01°45' E 102°33'910.7
2017-Jan-30 05:31N 01°49' E 102°25'  
Track history (hours):
 
Tides and Currents Weather Stations Pressure Air Temp Water Temp Dewpoint Dewpoint Depression Visibility Wind Speed Wind Dir Waves Ship Positions

Thurgau

Last reported at 2017-Jan-31 11:32 UTC. Time now 2017-Mar-25 13:33 UTC.
Position N 01°14' E 104°00'.
Warning: this ship's position is 53 days out of date.

Length 180 m; draft 9.2 m.

Type: Cargo ship. MMSI: 269217000.

Date/timePositionNaut miles runAvg speedWind from/ knotsBaromVisibWave heightAir tempDewpointWater temp
2017-Jan-31 11:32N 01°14' E 104°00'7 7.1
2017-Jan-31 10:33N 01°14' E 103°53'1 1.1
2017-Jan-31 09:30N 01°15' E 103°53'0 0.0
2017-Jan-31 08:30N 01°15' E 103°53'0 0.0
2017-Jan-31 07:27N 01°15' E 103°53'0 0.2
2017-Jan-31 06:24N 01°15' E 103°53'0 0.0
2017-Jan-31 01:12N 01°15' E 103°52'0 0.0
2017-Jan-30 23:30N 01°15' E 103°52'0 0.0
2017-Jan-30 17:33N 01°15' E 103°53'2 2.2
2017-Jan-30 16:33N 01°13' E 103°54'87 8.6
2017-Jan-30 06:21N 01°45' E 102°33'910.7
2017-Jan-30 05:31N 01°49' E 102°25'  

Dump ship's entire track history